sensor_id;sensor_type;location;lat;lon;timestamp;P1;durP1;ratioP1;P2;durP2;ratioP2
317;SDS011;146;53.448;10.228;2024-01-16T00:00:30;3.30;;;3.10;;
317;SDS011;146;53.448;10.228;2024-01-16T00:03:20;4.03;;;3.60;;
317;SDS011;146;53.448;10.228;2024-01-16T00:06:07;4.15;;;3.85;;
317;SDS011;146;53.448;10.228;2024-01-16T00:09:00;4.72;;;4.32;;
317;SDS011;146;53.448;10.228;2024-01-16T00:11:50;4.15;;;3.75;;
317;SDS011;146;53.448;10.228;2024-01-16T00:14:39;4.43;;;4.03;;
317;SDS011;146;53.448;10.228;2024-01-16T00:20:49;4.45;;;4.00;;
317;SDS011;146;53.448;10.228;2024-01-16T00:23:39;5.43;;;4.70;;
317;SDS011;146;53.448;10.228;2024-01-16T00:26:29;4.68;;;4.28;;
317;SDS011;146;53.448;10.228;2024-01-16T00:29:22;5.25;;;4.75;;
317;SDS011;146;53.448;10.228;2024-01-16T00:32:10;4.78;;;4.38;;
317;SDS011;146;53.448;10.228;2024-01-16T00:35:10;6.07;;;5.45;;
317;SDS011;146;53.448;10.228;2024-01-16T00:37:57;6.07;;;5.55;;
317;SDS011;146;53.448;10.228;2024-01-16T00:40:52;5.13;;;4.63;;
317;SDS011;146;53.448;10.228;2024-01-16T00:43:39;5.95;;;5.45;;
317;SDS011;146;53.448;10.228;2024-01-16T00:46:29;6.65;;;5.63;;
317;SDS011;146;53.448;10.228;2024-01-16T00:49:17;5.95;;;5.35;;
317;SDS011;146;53.448;10.228;2024-01-16T00:52:11;5.40;;;4.90;;
317;SDS011;146;53.448;10.228;2024-01-16T00:55:01;6.53;;;5.22;;
317;SDS011;146;53.448;10.228;2024-01-16T00:57:51;5.55;;;5.13;;
317;SDS011;146;53.448;10.228;2024-01-16T01:00:50;5.85;;;5.35;;
317;SDS011;146;53.448;10.228;2024-01-16T01:03:37;5.85;;;5.35;;
317;SDS011;146;53.448;10.228;2024-01-16T01:06:28;5.80;;;5.22;;
317;SDS011;146;53.448;10.228;2024-01-16T01:09:18;5.07;;;4.50;;
317;SDS011;146;53.448;10.228;2024-01-16T01:12:09;5.25;;;4.75;;
317;SDS011;146;53.448;10.228;2024-01-16T01:14:56;5.63;;;4.90;;
317;SDS011;146;53.448;10.228;2024-01-16T01:17:48;5.38;;;4.88;;
317;SDS011;146;53.448;10.228;2024-01-16T01:20:35;7.00;;;5.20;;
317;SDS011;146;53.448;10.228;2024-01-16T01:23:24;5.50;;;5.00;;
317;SDS011;146;53.448;10.228;2024-01-16T01:26:13;5.97;;;4.93;;
317;SDS011;146;53.448;10.228;2024-01-16T01:29:03;5.80;;;5.32;;
317;SDS011;146;53.448;10.228;2024-01-16T01:31:50;4.90;;;4.53;;
317;SDS011;146;53.448;10.228;2024-01-16T01:34:43;5.65;;;5.15;;
317;SDS011;146;53.448;10.228;2024-01-16T01:37:32;6.53;;;5.80;;
317;SDS011;146;53.448;10.228;2024-01-16T01:40:23;7.53;;;6.80;;
317;SDS011;146;53.448;10.228;2024-01-16T01:43:17;7.78;;;7.18;;
317;SDS011;146;53.448;10.228;2024-01-16T01:46:20;8.30;;;7.60;;
317;SDS011;146;53.448;10.228;2024-01-16T01:49:08;9.45;;;8.52;;
317;SDS011;146;53.448;10.228;2024-01-16T01:52:01;10.20;;;9.20;;
317;SDS011;146;53.448;10.228;2024-01-16T01:54:52;8.60;;;7.90;;
317;SDS011;146;53.448;10.228;2024-01-16T01:57:43;10.35;;;9.38;;
317;SDS011;146;53.448;10.228;2024-01-16T02:00:30;9.90;;;9.00;;
317;SDS011;146;53.448;10.228;2024-01-16T02:03:21;10.50;;;9.60;;
317;SDS011;146;53.448;10.228;2024-01-16T02:06:11;11.40;;;10.43;;
317;SDS011;146;53.448;10.228;2024-01-16T02:09:01;12.20;;;11.10;;
317;SDS011;146;53.448;10.228;2024-01-16T02:11:57;12.02;;;10.93;;
317;SDS011;146;53.448;10.228;2024-01-16T02:14:45;11.70;;;10.70;;
317;SDS011;146;53.448;10.228;2024-01-16T02:17:32;13.40;;;12.20;;
317;SDS011;146;53.448;10.228;2024-01-16T02:20:20;12.25;;;11.23;;
317;SDS011;146;53.448;10.228;2024-01-16T02:23:07;12.60;;;11.40;;
317;SDS011;146;53.448;10.228;2024-01-16T02:26:05;13.15;;;12.00;;
317;SDS011;146;53.448;10.228;2024-01-16T02:28:53;10.98;;;9.98;;
317;SDS011;146;53.448;10.228;2024-01-16T02:31:40;10.52;;;9.52;;
317;SDS011;146;53.448;10.228;2024-01-16T02:34:27;10.75;;;9.82;;
317;SDS011;146;53.448;10.228;2024-01-16T02:37:15;10.93;;;9.90;;
317;SDS011;146;53.448;10.228;2024-01-16T02:40:09;9.88;;;9.07;;
317;SDS011;146;53.448;10.228;2024-01-16T02:42:58;10.60;;;9.60;;
317;SDS011;146;53.448;10.228;2024-01-16T02:45:49;12.73;;;10.18;;
317;SDS011;146;53.448;10.228;2024-01-16T02:48:39;11.05;;;9.95;;
317;SDS011;146;53.448;10.228;2024-01-16T02:51:29;11.63;;;10.52;;
317;SDS011;146;53.448;10.228;2024-01-16T02:54:27;13.80;;;12.70;;
317;SDS011;146;53.448;10.228;2024-01-16T02:57:14;13.25;;;11.85;;
317;SDS011;146;53.448;10.228;2024-01-16T03:00:22;13.65;;;12.45;;
317;SDS011;146;53.448;10.228;2024-01-16T03:03:10;12.15;;;11.05;;
317;SDS011;146;53.448;10.228;2024-01-16T03:05:57;15.93;;;12.65;;
317;SDS011;146;53.448;10.228;2024-01-16T03:08:51;13.63;;;12.32;;
317;SDS011;146;53.448;10.228;2024-01-16T03:11:41;15.85;;;14.18;;
317;SDS011;146;53.448;10.228;2024-01-16T03:14:28;14.02;;;12.57;;
317;SDS011;146;53.448;10.228;2024-01-16T03:17:23;12.60;;;11.35;;
317;SDS011;146;53.448;10.228;2024-01-16T03:20:14;14.05;;;12.60;;
317;SDS011;146;53.448;10.228;2024-01-16T03:23:04;14.27;;;12.85;;
317;SDS011;146;53.448;10.228;2024-01-16T03:26:02;14.85;;;13.27;;
317;SDS011;146;53.448;10.228;2024-01-16T03:28:49;14.07;;;12.73;;
317;SDS011;146;53.448;10.228;2024-01-16T03:31:40;16.15;;;14.48;;
317;SDS011;146;53.448;10.228;2024-01-16T03:34:29;14.90;;;13.15;;
317;SDS011;146;53.448;10.228;2024-01-16T03:37:20;12.82;;;11.73;;
317;SDS011;146;53.448;10.228;2024-01-16T03:40:09;14.38;;;12.13;;
317;SDS011;146;53.448;10.228;2024-01-16T03:42:58;13.95;;;12.65;;
317;SDS011;146;53.448;10.228;2024-01-16T03:45:45;15.70;;;13.65;;
317;SDS011;146;53.448;10.228;2024-01-16T03:48:49;14.55;;;13.05;;
317;SDS011;146;53.448;10.228;2024-01-16T03:51:41;14.52;;;12.95;;
317;SDS011;146;53.448;10.228;2024-01-16T03:54:43;14.90;;;13.32;;
317;SDS011;146;53.448;10.228;2024-01-16T03:57:31;12.98;;;11.77;;
317;SDS011;146;53.448;10.228;2024-01-16T04:00:20;13.43;;;12.25;;
317;SDS011;146;53.448;10.228;2024-01-16T04:03:07;15.43;;;13.90;;
317;SDS011;146;53.448;10.228;2024-01-16T04:05:55;14.48;;;13.15;;
317;SDS011;146;53.448;10.228;2024-01-16T04:08:43;14.02;;;12.50;;
317;SDS011;146;53.448;10.228;2024-01-16T04:11:31;13.95;;;12.45;;
317;SDS011;146;53.448;10.228;2024-01-16T04:14:18;14.73;;;13.30;;
317;SDS011;146;53.448;10.228;2024-01-16T04:17:05;14.20;;;12.82;;
317;SDS011;146;53.448;10.228;2024-01-16T04:19:52;12.55;;;11.40;;
317;SDS011;146;53.448;10.228;2024-01-16T04:22:52;13.30;;;12.10;;
317;SDS011;146;53.448;10.228;2024-01-16T04:25:40;12.82;;;11.50;;
317;SDS011;146;53.448;10.228;2024-01-16T04:28:28;13.05;;;11.82;;
317;SDS011;146;53.448;10.228;2024-01-16T04:31:15;13.90;;;12.60;;
317;SDS011;146;53.448;10.228;2024-01-16T04:34:10;13.65;;;12.30;;
317;SDS011;146;53.448;10.228;2024-01-16T04:36:58;13.23;;;11.93;;
317;SDS011;146;53.448;10.228;2024-01-16T04:39:48;13.65;;;12.25;;
317;SDS011;146;53.448;10.228;2024-01-16T04:42:49;12.82;;;11.52;;
317;SDS011;146;53.448;10.228;2024-01-16T04:45:37;12.65;;;11.40;;
317;SDS011;146;53.448;10.228;2024-01-16T04:48:24;12.90;;;11.70;;
317;SDS011;146;53.448;10.228;2024-01-16T04:51:11;13.65;;;12.45;;
317;SDS011;146;53.448;10.228;2024-01-16T04:53:58;11.85;;;10.75;;
317;SDS011;146;53.448;10.228;2024-01-16T04:56:48;13.80;;;12.40;;
317;SDS011;146;53.448;10.228;2024-01-16T04:59:50;14.13;;;12.73;;
317;SDS011;146;53.448;10.228;2024-01-16T05:02:38;14.15;;;12.77;;
317;SDS011;146;53.448;10.228;2024-01-16T05:05:37;15.18;;;13.68;;
317;SDS011;146;53.448;10.228;2024-01-16T05:08:25;13.50;;;12.10;;
317;SDS011;146;53.448;10.228;2024-01-16T05:11:12;12.95;;;11.70;;
317;SDS011;146;53.448;10.228;2024-01-16T05:14:02;12.55;;;11.35;;
317;SDS011;146;53.448;10.228;2024-01-16T05:16:51;13.18;;;12.00;;
317;SDS011;146;53.448;10.228;2024-01-16T05:19:47;12.18;;;10.98;;
317;SDS011;146;53.448;10.228;2024-01-16T05:22:39;11.75;;;10.65;;
317;SDS011;146;53.448;10.228;2024-01-16T05:25:27;12.10;;;10.10;;
317;SDS011;146;53.448;10.228;2024-01-16T05:28:17;10.10;;;9.20;;
317;SDS011;146;53.448;10.228;2024-01-16T05:31:04;9.55;;;8.75;;
317;SDS011;146;53.448;10.228;2024-01-16T05:33:52;9.27;;;8.35;;
317;SDS011;146;53.448;10.228;2024-01-16T05:36:40;8.65;;;7.75;;
317;SDS011;146;53.448;10.228;2024-01-16T05:39:27;9.40;;;7.82;;
317;SDS011;146;53.448;10.228;2024-01-16T05:42:14;8.95;;;6.25;;
317;SDS011;146;53.448;10.228;2024-01-16T05:45:02;6.30;;;5.80;;
317;SDS011;146;53.448;10.228;2024-01-16T05:47:49;6.85;;;4.88;;
317;SDS011;146;53.448;10.228;2024-01-16T05:50:44;5.00;;;4.05;;
317;SDS011;146;53.448;10.228;2024-01-16T05:53:34;3.65;;;2.78;;
317;SDS011;146;53.448;10.228;2024-01-16T05:56:24;2.97;;;2.78;;
317;SDS011;146;53.448;10.228;2024-01-16T05:59:14;4.30;;;2.63;;
317;SDS011;146;53.448;10.228;2024-01-16T06:02:04;3.22;;;2.30;;
317;SDS011;146;53.448;10.228;2024-01-16T06:04:54;2.53;;;2.35;;
317;SDS011;146;53.448;10.228;2024-01-16T06:07:54;2.60;;;2.40;;
317;SDS011;146;53.448;10.228;2024-01-16T06:10:48;2.50;;;2.30;;
317;SDS011;146;53.448;10.228;2024-01-16T06:13:35;2.80;;;2.60;;
317;SDS011;146;53.448;10.228;2024-01-16T06:16:25;3.95;;;3.65;;
317;SDS011;146;53.448;10.228;2024-01-16T06:19:13;3.08;;;2.55;;
317;SDS011;146;53.448;10.228;2024-01-16T06:22:00;3.65;;;2.60;;
317;SDS011;146;53.448;10.228;2024-01-16T06:24:51;3.42;;;2.80;;
317;SDS011;146;53.448;10.228;2024-01-16T06:27:41;3.15;;;2.70;;
317;SDS011;146;53.448;10.228;2024-01-16T06:30:28;6.68;;;3.20;;
317;SDS011;146;53.448;10.228;2024-01-16T06:33:19;3.20;;;2.90;;
317;SDS011;146;53.448;10.228;2024-01-16T06:36:09;4.18;;;3.78;;
317;SDS011;146;53.448;10.228;2024-01-16T06:39:02;4.40;;;3.40;;
317;SDS011;146;53.448;10.228;2024-01-16T06:41:51;5.47;;;3.50;;
317;SDS011;146;53.448;10.228;2024-01-16T06:44:50;4.68;;;3.70;;
317;SDS011;146;53.448;10.228;2024-01-16T06:47:37;6.45;;;4.18;;
317;SDS011;146;53.448;10.228;2024-01-16T06:50:28;5.88;;;4.00;;
317;SDS011;146;53.448;10.228;2024-01-16T06:53:24;7.45;;;4.10;;
317;SDS011;146;53.448;10.228;2024-01-16T06:56:14;6.47;;;3.90;;
317;SDS011;146;53.448;10.228;2024-01-16T06:59:05;4.97;;;4.20;;
317;SDS011;146;53.448;10.228;2024-01-16T07:01:56;5.20;;;4.53;;
317;SDS011;146;53.448;10.228;2024-01-16T07:04:43;7.95;;;5.60;;
317;SDS011;146;53.448;10.228;2024-01-16T07:07:32;7.80;;;6.20;;
317;SDS011;146;53.448;10.228;2024-01-16T07:10:27;8.93;;;6.50;;
317;SDS011;146;53.448;10.228;2024-01-16T07:13:14;9.43;;;8.43;;
317;SDS011;146;53.448;10.228;2024-01-16T07:16:03;10.25;;;8.52;;
317;SDS011;146;53.448;10.228;2024-01-16T07:18:50;9.65;;;8.68;;
317;SDS011;146;53.448;10.228;2024-01-16T07:21:39;10.05;;;9.05;;
317;SDS011;146;53.448;10.228;2024-01-16T07:24:27;10.63;;;9.63;;
317;SDS011;146;53.448;10.228;2024-01-16T07:27:14;12.32;;;9.88;;
317;SDS011;146;53.448;10.228;2024-01-16T07:30:03;11.48;;;10.32;;
317;SDS011;146;53.448;10.228;2024-01-16T07:32:52;10.93;;;9.70;;
317;SDS011;146;53.448;10.228;2024-01-16T07:35:40;11.75;;;10.68;;
317;SDS011;146;53.448;10.228;2024-01-16T07:38:29;15.15;;;12.70;;
317;SDS011;146;53.448;10.228;2024-01-16T07:41:16;15.18;;;13.68;;
317;SDS011;146;53.448;10.228;2024-01-16T07:44:03;14.02;;;12.73;;
317;SDS011;146;53.448;10.228;2024-01-16T07:46:55;17.50;;;15.80;;
317;SDS011;146;53.448;10.228;2024-01-16T07:49:43;16.90;;;13.85;;
317;SDS011;146;53.448;10.228;2024-01-16T07:52:31;18.02;;;15.43;;
317;SDS011;146;53.448;10.228;2024-01-16T07:55:18;19.88;;;16.75;;
317;SDS011;146;53.448;10.228;2024-01-16T07:58:05;15.82;;;13.07;;
317;SDS011;146;53.448;10.228;2024-01-16T08:00:53;14.15;;;12.75;;
317;SDS011;146;53.448;10.228;2024-01-16T08:03:41;14.88;;;13.38;;
317;SDS011;146;53.448;10.228;2024-01-16T08:06:32;15.38;;;13.95;;
317;SDS011;146;53.448;10.228;2024-01-16T08:09:20;14.68;;;13.05;;
317;SDS011;146;53.448;10.228;2024-01-16T08:12:07;13.60;;;12.23;;
317;SDS011;146;53.448;10.228;2024-01-16T08:14:54;14.13;;;12.70;;
317;SDS011;146;53.448;10.228;2024-01-16T08:17:42;13.52;;;12.30;;
317;SDS011;146;53.448;10.228;2024-01-16T08:20:36;14.82;;;12.32;;
317;SDS011;146;53.448;10.228;2024-01-16T08:23:30;12.65;;;11.45;;
317;SDS011;146;53.448;10.228;2024-01-16T08:26:20;12.93;;;11.80;;
317;SDS011;146;53.448;10.228;2024-01-16T08:29:10;13.75;;;11.48;;
317;SDS011;146;53.448;10.228;2024-01-16T08:32:00;13.82;;;12.48;;
317;SDS011;146;53.448;10.228;2024-01-16T08:34:49;13.73;;;12.07;;
317;SDS011;146;53.448;10.228;2024-01-16T08:37:42;17.25;;;12.38;;
317;SDS011;146;53.448;10.228;2024-01-16T08:40:31;14.52;;;11.75;;
317;SDS011;146;53.448;10.228;2024-01-16T08:46:30;13.25;;;12.05;;
317;SDS011;146;53.448;10.228;2024-01-16T08:49:17;12.52;;;11.50;;
317;SDS011;146;53.448;10.228;2024-01-16T08:52:07;12.90;;;11.70;;
317;SDS011;146;53.448;10.228;2024-01-16T08:54:55;17.58;;;11.30;;
317;SDS011;146;53.448;10.228;2024-01-16T08:57:44;13.93;;;12.68;;
317;SDS011;146;53.448;10.228;2024-01-16T09:00:37;16.02;;;11.85;;
317;SDS011;146;53.448;10.228;2024-01-16T09:03:25;14.43;;;13.13;;
317;SDS011;146;53.448;10.228;2024-01-16T09:06:12;13.30;;;11.20;;
317;SDS011;146;53.448;10.228;2024-01-16T09:09:02;14.40;;;12.13;;
317;SDS011;146;53.448;10.228;2024-01-16T09:11:52;12.63;;;11.52;;
317;SDS011;146;53.448;10.228;2024-01-16T09:14:46;13.75;;;12.38;;
317;SDS011;146;53.448;10.228;2024-01-16T09:17:36;15.27;;;11.80;;
317;SDS011;146;53.448;10.228;2024-01-16T09:20:27;14.38;;;13.00;;
317;SDS011;146;53.448;10.228;2024-01-16T09:23:50;14.85;;;12.50;;
317;SDS011;146;53.448;10.228;2024-01-16T09:26:48;11.88;;;10.65;;
317;SDS011;146;53.448;10.228;2024-01-16T09:29:38;11.32;;;10.32;;
317;SDS011;146;53.448;10.228;2024-01-16T09:35:32;11.90;;;10.70;;
317;SDS011;146;53.448;10.228;2024-01-16T09:38:22;11.60;;;10.60;;
317;SDS011;146;53.448;10.228;2024-01-16T09:41:13;11.07;;;9.98;;
317;SDS011;146;53.448;10.228;2024-01-16T09:44:00;9.93;;;8.93;;
317;SDS011;146;53.448;10.228;2024-01-16T09:46:51;9.13;;;8.32;;
317;SDS011;146;53.448;10.228;2024-01-16T09:49:42;12.63;;;8.05;;
317;SDS011;146;53.448;10.228;2024-01-16T09:52:43;9.35;;;8.48;;
317;SDS011;146;53.448;10.228;2024-01-16T09:55:33;8.43;;;6.95;;
317;SDS011;146;53.448;10.228;2024-01-16T09:58:26;6.95;;;6.45;;
317;SDS011;146;53.448;10.228;2024-01-16T10:02:00;8.80;;;6.80;;
317;SDS011;146;53.448;10.228;2024-01-16T10:04:52;6.45;;;5.85;;
317;SDS011;146;53.448;10.228;2024-01-16T10:07:42;7.53;;;6.20;;
317;SDS011;146;53.448;10.228;2024-01-16T10:10:47;6.63;;;6.00;;
317;SDS011;146;53.448;10.228;2024-01-16T10:13:40;5.93;;;5.53;;
317;SDS011;146;53.448;10.228;2024-01-16T10:19:48;9.95;;;6.43;;
317;SDS011;146;53.448;10.228;2024-01-16T10:22:38;7.28;;;6.05;;
317;SDS011;146;53.448;10.228;2024-01-16T10:25:32;9.27;;;6.50;;
317;SDS011;146;53.448;10.228;2024-01-16T10:28:22;6.55;;;5.95;;
317;SDS011;146;53.448;10.228;2024-01-16T10:31:11;6.85;;;6.15;;
317;SDS011;146;53.448;10.228;2024-01-16T10:34:00;10.00;;;6.53;;
317;SDS011;146;53.448;10.228;2024-01-16T10:37:05;6.60;;;6.00;;
317;SDS011;146;53.448;10.228;2024-01-16T10:39:54;9.20;;;6.22;;
317;SDS011;146;53.448;10.228;2024-01-16T10:42:41;10.02;;;6.07;;
317;SDS011;146;53.448;10.228;2024-01-16T10:45:29;7.97;;;6.60;;
317;SDS011;146;53.448;10.228;2024-01-16T10:48:17;6.55;;;6.00;;
317;SDS011;146;53.448;10.228;2024-01-16T10:51:04;6.55;;;6.05;;
317;SDS011;146;53.448;10.228;2024-01-16T10:53:57;9.20;;;6.45;;
317;SDS011;146;53.448;10.228;2024-01-16T10:56:48;5.80;;;5.35;;
317;SDS011;146;53.448;10.228;2024-01-16T10:59:38;8.05;;;6.15;;
317;SDS011;146;53.448;10.228;2024-01-16T11:02:38;6.38;;;5.13;;
317;SDS011;146;53.448;10.228;2024-01-16T11:05:31;7.32;;;5.57;;
317;SDS011;146;53.448;10.228;2024-01-16T11:08:19;6.68;;;6.07;;
317;SDS011;146;53.448;10.228;2024-01-16T11:11:07;6.63;;;5.82;;
317;SDS011;146;53.448;10.228;2024-01-16T11:13:57;7.93;;;5.72;;
317;SDS011;146;53.448;10.228;2024-01-16T11:16:48;7.18;;;6.05;;
317;SDS011;146;53.448;10.228;2024-01-16T11:19:38;6.18;;;5.55;;
317;SDS011;146;53.448;10.228;2024-01-16T11:22:29;8.18;;;4.88;;
317;SDS011;146;53.448;10.228;2024-01-16T11:25:18;5.97;;;4.55;;
317;SDS011;146;53.448;10.228;2024-01-16T11:28:09;4.63;;;4.30;;
317;SDS011;146;53.448;10.228;2024-01-16T11:31:09;5.45;;;4.00;;
317;SDS011;146;53.448;10.228;2024-01-16T11:34:17;7.68;;;4.13;;
317;SDS011;146;53.448;10.228;2024-01-16T11:37:51;5.93;;;4.55;;
317;SDS011;146;53.448;10.228;2024-01-16T11:40:39;4.47;;;4.05;;
317;SDS011;146;53.448;10.228;2024-01-16T11:43:35;4.65;;;4.00;;
317;SDS011;146;53.448;10.228;2024-01-16T11:46:31;7.00;;;3.70;;
317;SDS011;146;53.448;10.228;2024-01-16T11:49:50;6.07;;;4.88;;
317;SDS011;146;53.448;10.228;2024-01-16T11:52:39;5.65;;;4.50;;
317;SDS011;146;53.448;10.228;2024-01-16T11:55:30;6.20;;;4.97;;
317;SDS011;146;53.448;10.228;2024-01-16T11:58:25;6.50;;;4.93;;
317;SDS011;146;53.448;10.228;2024-01-16T12:01:27;8.98;;;5.35;;
317;SDS011;146;53.448;10.228;2024-01-16T12:04:23;8.88;;;6.90;;
317;SDS011;146;53.448;10.228;2024-01-16T12:07:22;6.32;;;5.72;;
317;SDS011;146;53.448;10.228;2024-01-16T12:10:09;5.82;;;5.22;;
317;SDS011;146;53.448;10.228;2024-01-16T12:13:02;7.10;;;5.18;;
317;SDS011;146;53.448;10.228;2024-01-16T12:15:58;5.88;;;4.80;;
317;SDS011;146;53.448;10.228;2024-01-16T12:18:47;5.25;;;4.50;;
317;SDS011;146;53.448;10.228;2024-01-16T12:21:41;6.35;;;5.00;;
317;SDS011;146;53.448;10.228;2024-01-16T12:24:30;9.60;;;5.13;;
317;SDS011;146;53.448;10.228;2024-01-16T12:27:22;7.60;;;5.03;;
317;SDS011;146;53.448;10.228;2024-01-16T12:30:18;7.05;;;5.30;;
317;SDS011;146;53.448;10.228;2024-01-16T12:33:11;5.20;;;4.78;;
317;SDS011;146;53.448;10.228;2024-01-16T12:36:02;7.70;;;4.78;;
317;SDS011;146;53.448;10.228;2024-01-16T12:38:56;6.70;;;5.18;;
317;SDS011;146;53.448;10.228;2024-01-16T12:41:57;5.28;;;4.10;;
317;SDS011;146;53.448;10.228;2024-01-16T12:44:51;10.75;;;5.22;;
317;SDS011;146;53.448;10.228;2024-01-16T12:47:38;6.00;;;4.45;;
317;SDS011;146;53.448;10.228;2024-01-16T12:50:30;5.03;;;4.63;;
317;SDS011;146;53.448;10.228;2024-01-16T12:53:25;7.22;;;4.80;;
317;SDS011;146;53.448;10.228;2024-01-16T12:56:12;5.07;;;4.68;;
317;SDS011;146;53.448;10.228;2024-01-16T12:59:08;5.10;;;3.88;;
317;SDS011;146;53.448;10.228;2024-01-16T13:01:58;4.45;;;4.15;;
317;SDS011;146;53.448;10.228;2024-01-16T13:04:45;9.07;;;6.07;;
317;SDS011;146;53.448;10.228;2024-01-16T13:07:45;5.35;;;4.72;;
317;SDS011;146;53.448;10.228;2024-01-16T13:14:20;5.57;;;4.50;;
317;SDS011;146;53.448;10.228;2024-01-16T13:17:13;7.97;;;4.88;;
317;SDS011;146;53.448;10.228;2024-01-16T13:20:09;8.75;;;6.20;;
317;SDS011;146;53.448;10.228;2024-01-16T13:23:01;6.63;;;4.72;;
317;SDS011;146;53.448;10.228;2024-01-16T13:25:51;5.93;;;4.43;;
317;SDS011;146;53.448;10.228;2024-01-16T13:28:46;6.43;;;4.63;;
317;SDS011;146;53.448;10.228;2024-01-16T13:31:46;6.28;;;5.68;;
317;SDS011;146;53.448;10.228;2024-01-16T13:34:44;7.28;;;5.78;;
317;SDS011;146;53.448;10.228;2024-01-16T13:37:54;7.57;;;6.60;;
317;SDS011;146;53.448;10.228;2024-01-16T13:40:45;7.05;;;6.22;;
317;SDS011;146;53.448;10.228;2024-01-16T13:43:38;8.25;;;6.72;;
317;SDS011;146;53.448;10.228;2024-01-16T13:46:46;8.77;;;6.93;;
317;SDS011;146;53.448;10.228;2024-01-16T13:49:43;9.20;;;6.97;;
317;SDS011;146;53.448;10.228;2024-01-16T13:52:30;7.40;;;6.80;;
317;SDS011;146;53.448;10.228;2024-01-16T13:55:21;7.30;;;6.75;;
317;SDS011;146;53.448;10.228;2024-01-16T13:58:08;9.30;;;8.50;;
317;SDS011;146;53.448;10.228;2024-01-16T14:01:00;10.35;;;9.18;;
317;SDS011;146;53.448;10.228;2024-01-16T14:03:51;11.45;;;10.13;;
317;SDS011;146;53.448;10.228;2024-01-16T14:06:41;13.38;;;12.15;;
317;SDS011;146;53.448;10.228;2024-01-16T14:09:32;15.43;;;13.88;;
317;SDS011;146;53.448;10.228;2024-01-16T14:12:22;15.25;;;13.85;;
317;SDS011;146;53.448;10.228;2024-01-16T14:15:10;14.93;;;13.63;;
317;SDS011;146;53.448;10.228;2024-01-16T14:18:09;19.35;;;16.52;;
317;SDS011;146;53.448;10.228;2024-01-16T14:21:07;19.20;;;17.50;;
317;SDS011;146;53.448;10.228;2024-01-16T14:24:00;18.75;;;17.05;;
317;SDS011;146;53.448;10.228;2024-01-16T14:26:50;20.67;;;15.60;;
317;SDS011;146;53.448;10.228;2024-01-16T14:29:37;16.75;;;14.50;;
317;SDS011;146;53.448;10.228;2024-01-16T14:32:25;16.13;;;14.77;;
317;SDS011;146;53.448;10.228;2024-01-16T14:35:12;16.15;;;14.60;;
317;SDS011;146;53.448;10.228;2024-01-16T14:38:04;14.95;;;13.43;;
317;SDS011;146;53.448;10.228;2024-01-16T14:40:51;15.43;;;13.90;;
317;SDS011;146;53.448;10.228;2024-01-16T14:43:41;14.57;;;13.23;;
317;SDS011;146;53.448;10.228;2024-01-16T14:46:51;15.50;;;13.93;;
317;SDS011;146;53.448;10.228;2024-01-16T14:49:39;15.30;;;13.70;;
317;SDS011;146;53.448;10.228;2024-01-16T14:52:28;16.00;;;14.63;;
317;SDS011;146;53.448;10.228;2024-01-16T14:55:27;15.68;;;14.05;;
317;SDS011;146;53.448;10.228;2024-01-16T14:58:14;14.18;;;12.52;;
317;SDS011;146;53.448;10.228;2024-01-16T15:01:04;15.68;;;13.63;;
317;SDS011;146;53.448;10.228;2024-01-16T15:03:52;14.45;;;13.00;;
317;SDS011;146;53.448;10.228;2024-01-16T15:06:39;15.02;;;12.07;;
317;SDS011;146;53.448;10.228;2024-01-16T15:09:39;12.98;;;11.68;;
317;SDS011;146;53.448;10.228;2024-01-16T15:12:39;16.30;;;13.43;;
317;SDS011;146;53.448;10.228;2024-01-16T15:15:26;12.93;;;11.52;;
317;SDS011;146;53.448;10.228;2024-01-16T15:18:16;13.35;;;12.02;;
317;SDS011;146;53.448;10.228;2024-01-16T15:21:03;11.80;;;9.98;;
317;SDS011;146;53.448;10.228;2024-01-16T15:24:00;11.88;;;10.35;;
317;SDS011;146;53.448;10.228;2024-01-16T15:26:52;13.38;;;12.07;;
317;SDS011;146;53.448;10.228;2024-01-16T15:29:41;14.13;;;12.75;;
317;SDS011;146;53.448;10.228;2024-01-16T15:32:44;14.68;;;11.48;;
317;SDS011;146;53.448;10.228;2024-01-16T15:35:32;14.10;;;11.55;;
317;SDS011;146;53.448;10.228;2024-01-16T15:38:19;12.38;;;11.27;;
317;SDS011;146;53.448;10.228;2024-01-16T15:41:07;11.67;;;10.67;;
317;SDS011;146;53.448;10.228;2024-01-16T15:44:08;13.25;;;10.02;;
317;SDS011;146;53.448;10.228;2024-01-16T15:46:59;11.63;;;10.43;;
317;SDS011;146;53.448;10.228;2024-01-16T15:49:49;13.60;;;12.02;;
317;SDS011;146;53.448;10.228;2024-01-16T15:52:50;12.98;;;11.63;;
317;SDS011;146;53.448;10.228;2024-01-16T15:55:38;12.27;;;11.00;;
317;SDS011;146;53.448;10.228;2024-01-16T15:58:31;12.73;;;11.50;;
317;SDS011;146;53.448;10.228;2024-01-16T16:01:30;14.48;;;12.43;;
317;SDS011;146;53.448;10.228;2024-01-16T16:04:22;15.32;;;12.23;;
317;SDS011;146;53.448;10.228;2024-01-16T16:07:10;11.65;;;10.55;;
317;SDS011;146;53.448;10.228;2024-01-16T16:10:00;11.73;;;10.45;;
317;SDS011;146;53.448;10.228;2024-01-16T16:12:47;10.18;;;9.10;;
317;SDS011;146;53.448;10.228;2024-01-16T16:15:49;10.13;;;9.10;;
317;SDS011;146;53.448;10.228;2024-01-16T16:18:36;11.27;;;9.75;;
317;SDS011;146;53.448;10.228;2024-01-16T16:21:32;11.60;;;10.43;;
317;SDS011;146;53.448;10.228;2024-01-16T16:27:29;11.67;;;8.13;;
317;SDS011;146;53.448;10.228;2024-01-16T16:30:29;8.88;;;8.07;;
317;SDS011;146;53.448;10.228;2024-01-16T16:33:19;9.18;;;8.20;;
317;SDS011;146;53.448;10.228;2024-01-16T16:36:09;8.73;;;7.80;;
317;SDS011;146;53.448;10.228;2024-01-16T16:39:00;10.73;;;8.63;;
317;SDS011;146;53.448;10.228;2024-01-16T16:41:48;8.35;;;7.65;;
317;SDS011;146;53.448;10.228;2024-01-16T16:44:42;11.90;;;9.82;;
317;SDS011;146;53.448;10.228;2024-01-16T16:47:29;8.57;;;7.75;;
317;SDS011;146;53.448;10.228;2024-01-16T16:50:16;12.55;;;9.32;;
317;SDS011;146;53.448;10.228;2024-01-16T16:53:06;9.95;;;8.98;;
317;SDS011;146;53.448;10.228;2024-01-16T16:56:01;10.30;;;9.30;;
317;SDS011;146;53.448;10.228;2024-01-16T16:59:01;10.30;;;8.55;;
317;SDS011;146;53.448;10.228;2024-01-16T17:01:54;10.32;;;9.20;;
317;SDS011;146;53.448;10.228;2024-01-16T17:04:47;10.52;;;8.93;;
317;SDS011;146;53.448;10.228;2024-01-16T17:07:40;9.52;;;8.60;;
317;SDS011;146;53.448;10.228;2024-01-16T17:10:27;10.20;;;9.18;;
317;SDS011;146;53.448;10.228;2024-01-16T17:13:18;8.75;;;7.85;;
317;SDS011;146;53.448;10.228;2024-01-16T17:16:09;13.90;;;10.13;;
317;SDS011;146;53.448;10.228;2024-01-16T17:19:02;10.32;;;8.98;;
317;SDS011;146;53.448;10.228;2024-01-16T17:21:49;13.30;;;10.00;;
317;SDS011;146;53.448;10.228;2024-01-16T17:24:36;9.52;;;8.63;;
317;SDS011;146;53.448;10.228;2024-01-16T17:27:32;12.38;;;10.00;;
317;SDS011;146;53.448;10.228;2024-01-16T17:30:30;11.43;;;10.15;;
317;SDS011;146;53.448;10.228;2024-01-16T17:33:20;10.95;;;9.85;;
317;SDS011;146;53.448;10.228;2024-01-16T17:36:10;12.27;;;11.03;;
317;SDS011;146;53.448;10.228;2024-01-16T17:38:58;12.45;;;11.25;;
317;SDS011;146;53.448;10.228;2024-01-16T17:41:45;11.80;;;10.55;;
317;SDS011;146;53.448;10.228;2024-01-16T17:44:50;11.77;;;10.57;;
317;SDS011;146;53.448;10.228;2024-01-16T17:47:38;14.77;;;11.07;;
317;SDS011;146;53.448;10.228;2024-01-16T17:50:26;11.88;;;10.82;;
317;SDS011;146;53.448;10.228;2024-01-16T17:53:13;12.00;;;10.77;;
317;SDS011;146;53.448;10.228;2024-01-16T17:56:00;13.20;;;11.90;;
317;SDS011;146;53.448;10.228;2024-01-16T17:58:47;13.57;;;11.48;;
317;SDS011;146;53.448;10.228;2024-01-16T18:01:35;12.13;;;10.93;;
317;SDS011;146;53.448;10.228;2024-01-16T18:04:23;11.40;;;10.20;;